sensor_id;sensor_type;location;lat;lon;timestamp;P1;durP1;ratioP1;P2;durP2;ratioP2
14584;SDS011;7379;51.506;11.876;2023-09-12T00:00:21;8.07;;;5.45;;
14584;SDS011;7379;51.506;11.876;2023-09-12T00:02:49;8.95;;;5.43;;
14584;SDS011;7379;51.506;11.876;2023-09-12T00:05:16;7.78;;;5.32;;
14584;SDS011;7379;51.506;11.876;2023-09-12T00:07:42;8.25;;;5.20;;
14584;SDS011;7379;51.506;11.876;2023-09-12T00:10:09;10.00;;;5.97;;
14584;SDS011;7379;51.506;11.876;2023-09-12T00:12:36;9.25;;;5.20;;
14584;SDS011;7379;51.506;11.876;2023-09-12T00:15:05;10.63;;;5.55;;
14584;SDS011;7379;51.506;11.876;2023-09-12T00:17:32;7.18;;;5.32;;
14584;SDS011;7379;51.506;11.876;2023-09-12T00:19:59;7.85;;;5.38;;
14584;SDS011;7379;51.506;11.876;2023-09-12T00:22:26;10.43;;;5.32;;
14584;SDS011;7379;51.506;11.876;2023-09-12T00:24:52;8.65;;;5.40;;
14584;SDS011;7379;51.506;11.876;2023-09-12T00:27:19;10.13;;;5.53;;
14584;SDS011;7379;51.506;11.876;2023-09-12T00:29:46;8.18;;;5.50;;
14584;SDS011;7379;51.506;11.876;2023-09-12T00:32:14;11.25;;;5.70;;
14584;SDS011;7379;51.506;11.876;2023-09-12T00:34:40;8.88;;;6.03;;
14584;SDS011;7379;51.506;11.876;2023-09-12T00:37:07;9.60;;;5.80;;
14584;SDS011;7379;51.506;11.876;2023-09-12T00:39:34;8.82;;;5.28;;
14584;SDS011;7379;51.506;11.876;2023-09-12T00:42:01;7.57;;;5.80;;
14584;SDS011;7379;51.506;11.876;2023-09-12T00:44:28;11.00;;;5.57;;
14584;SDS011;7379;51.506;11.876;2023-09-12T00:46:55;10.88;;;5.80;;
14584;SDS011;7379;51.506;11.876;2023-09-12T00:49:24;8.80;;;5.35;;
14584;SDS011;7379;51.506;11.876;2023-09-12T00:51:51;7.65;;;6.00;;
14584;SDS011;7379;51.506;11.876;2023-09-12T00:54:19;6.78;;;5.32;;
14584;SDS011;7379;51.506;11.876;2023-09-12T00:56:46;8.30;;;5.60;;
14584;SDS011;7379;51.506;11.876;2023-09-12T00:59:12;8.15;;;5.90;;
14584;SDS011;7379;51.506;11.876;2023-09-12T01:01:41;6.97;;;5.45;;
14584;SDS011;7379;51.506;11.876;2023-09-12T01:04:09;8.68;;;5.63;;
14584;SDS011;7379;51.506;11.876;2023-09-12T01:06:37;10.75;;;6.00;;
14584;SDS011;7379;51.506;11.876;2023-09-12T01:09:04;7.55;;;5.15;;
14584;SDS011;7379;51.506;11.876;2023-09-12T01:11:32;8.07;;;5.20;;
14584;SDS011;7379;51.506;11.876;2023-09-12T01:13:59;8.27;;;5.60;;
14584;SDS011;7379;51.506;11.876;2023-09-12T01:16:26;9.15;;;5.80;;
14584;SDS011;7379;51.506;11.876;2023-09-12T01:18:53;10.55;;;5.70;;
14584;SDS011;7379;51.506;11.876;2023-09-12T01:21:35;7.50;;;5.30;;
14584;SDS011;7379;51.506;11.876;2023-09-12T01:24:23;8.18;;;5.38;;
14584;SDS011;7379;51.506;11.876;2023-09-12T01:27:15;8.18;;;5.65;;
14584;SDS011;7379;51.506;11.876;2023-09-12T01:29:46;10.35;;;5.72;;
14584;SDS011;7379;51.506;11.876;2023-09-12T01:32:17;7.50;;;5.40;;
14584;SDS011;7379;51.506;11.876;2023-09-12T01:34:45;8.38;;;5.68;;
14584;SDS011;7379;51.506;11.876;2023-09-12T01:37:12;9.32;;;5.85;;
14584;SDS011;7379;51.506;11.876;2023-09-12T01:39:39;8.25;;;5.50;;
14584;SDS011;7379;51.506;11.876;2023-09-12T01:42:06;9.65;;;5.43;;
14584;SDS011;7379;51.506;11.876;2023-09-12T01:44:38;11.45;;;5.57;;
14584;SDS011;7379;51.506;11.876;2023-09-12T01:47:05;8.75;;;5.40;;
14584;SDS011;7379;51.506;11.876;2023-09-12T01:49:32;9.27;;;5.82;;
14584;SDS011;7379;51.506;11.876;2023-09-12T01:51:59;7.93;;;5.70;;
14584;SDS011;7379;51.506;11.876;2023-09-12T01:54:28;9.80;;;5.70;;
14584;SDS011;7379;51.506;11.876;2023-09-12T01:56:55;7.82;;;5.72;;
14584;SDS011;7379;51.506;11.876;2023-09-12T01:59:24;7.90;;;5.57;;
14584;SDS011;7379;51.506;11.876;2023-09-12T02:01:52;10.27;;;5.80;;
14584;SDS011;7379;51.506;11.876;2023-09-12T02:04:18;9.63;;;5.75;;
14584;SDS011;7379;51.506;11.876;2023-09-12T02:06:45;9.43;;;5.93;;
14584;SDS011;7379;51.506;11.876;2023-09-12T02:09:12;9.40;;;5.68;;
14584;SDS011;7379;51.506;11.876;2023-09-12T02:11:38;9.32;;;5.80;;
14584;SDS011;7379;51.506;11.876;2023-09-12T02:14:05;9.38;;;5.65;;
14584;SDS011;7379;51.506;11.876;2023-09-12T02:16:32;8.85;;;5.93;;
14584;SDS011;7379;51.506;11.876;2023-09-12T02:19:03;9.65;;;5.63;;
14584;SDS011;7379;51.506;11.876;2023-09-12T02:21:30;9.77;;;5.65;;
14584;SDS011;7379;51.506;11.876;2023-09-12T02:23:57;8.20;;;5.75;;
14584;SDS011;7379;51.506;11.876;2023-09-12T02:26:24;9.45;;;5.72;;
14584;SDS011;7379;51.506;11.876;2023-09-12T02:28:50;10.23;;;6.00;;
14584;SDS011;7379;51.506;11.876;2023-09-12T02:31:17;8.60;;;5.90;;
14584;SDS011;7379;51.506;11.876;2023-09-12T02:33:44;9.73;;;6.13;;
14584;SDS011;7379;51.506;11.876;2023-09-12T02:36:13;8.20;;;6.03;;
14584;SDS011;7379;51.506;11.876;2023-09-12T02:38:39;8.55;;;5.80;;
14584;SDS011;7379;51.506;11.876;2023-09-12T02:41:06;10.10;;;6.28;;
14584;SDS011;7379;51.506;11.876;2023-09-12T02:43:33;8.10;;;6.05;;
14584;SDS011;7379;51.506;11.876;2023-09-12T02:45:59;9.25;;;5.88;;
14584;SDS011;7379;51.506;11.876;2023-09-12T02:48:26;9.57;;;5.93;;
14584;SDS011;7379;51.506;11.876;2023-09-12T02:50:53;10.65;;;6.10;;
14584;SDS011;7379;51.506;11.876;2023-09-12T02:53:21;9.30;;;5.70;;
14584;SDS011;7379;51.506;11.876;2023-09-12T02:55:47;9.98;;;5.88;;
14584;SDS011;7379;51.506;11.876;2023-09-12T02:58:14;11.30;;;5.80;;
14584;SDS011;7379;51.506;11.876;2023-09-12T03:00:41;7.85;;;6.03;;
14584;SDS011;7379;51.506;11.876;2023-09-12T03:03:07;10.73;;;5.80;;
14584;SDS011;7379;51.506;11.876;2023-09-12T03:05:34;13.35;;;6.20;;
14584;SDS011;7379;51.506;11.876;2023-09-12T03:08:01;8.88;;;6.20;;
14584;SDS011;7379;51.506;11.876;2023-09-12T03:10:30;11.63;;;5.80;;
14584;SDS011;7379;51.506;11.876;2023-09-12T03:12:57;8.43;;;5.60;;
14584;SDS011;7379;51.506;11.876;2023-09-12T03:15:23;10.32;;;5.80;;
14584;SDS011;7379;51.506;11.876;2023-09-12T03:17:50;9.70;;;5.85;;
14584;SDS011;7379;51.506;11.876;2023-09-12T03:20:17;11.13;;;5.82;;
14584;SDS011;7379;51.506;11.876;2023-09-12T03:22:44;11.90;;;5.95;;
14584;SDS011;7379;51.506;11.876;2023-09-12T03:25:12;7.38;;;5.80;;
14584;SDS011;7379;51.506;11.876;2023-09-12T03:27:40;9.45;;;5.80;;
14584;SDS011;7379;51.506;11.876;2023-09-12T03:30:07;7.43;;;5.30;;
14584;SDS011;7379;51.506;11.876;2023-09-12T03:32:34;8.38;;;5.47;;
14584;SDS011;7379;51.506;11.876;2023-09-12T03:35:01;8.70;;;5.85;;
14584;SDS011;7379;51.506;11.876;2023-09-12T03:37:28;10.55;;;6.30;;
14584;SDS011;7379;51.506;11.876;2023-09-12T03:39:55;8.75;;;5.80;;
14584;SDS011;7379;51.506;11.876;2023-09-12T03:42:22;8.52;;;5.60;;
14584;SDS011;7379;51.506;11.876;2023-09-12T03:44:50;9.60;;;5.93;;
14584;SDS011;7379;51.506;11.876;2023-09-12T03:47:16;10.38;;;6.10;;
14584;SDS011;7379;51.506;11.876;2023-09-12T03:49:43;11.43;;;6.07;;
14584;SDS011;7379;51.506;11.876;2023-09-12T03:52:10;9.88;;;5.68;;
14584;SDS011;7379;51.506;11.876;2023-09-12T03:54:36;9.25;;;5.82;;
14584;SDS011;7379;51.506;11.876;2023-09-12T03:57:03;9.93;;;6.05;;
14584;SDS011;7379;51.506;11.876;2023-09-12T03:59:30;8.68;;;5.63;;
14584;SDS011;7379;51.506;11.876;2023-09-12T04:01:58;8.98;;;5.80;;
14584;SDS011;7379;51.506;11.876;2023-09-12T04:04:27;8.52;;;6.18;;
14584;SDS011;7379;51.506;11.876;2023-09-12T04:06:54;11.00;;;6.10;;
14584;SDS011;7379;51.506;11.876;2023-09-12T04:09:21;10.70;;;5.82;;
14584;SDS011;7379;51.506;11.876;2023-09-12T04:11:48;8.30;;;5.93;;
14584;SDS011;7379;51.506;11.876;2023-09-12T04:14:14;9.70;;;5.90;;
14584;SDS011;7379;51.506;11.876;2023-09-12T04:16:41;9.65;;;6.20;;
14584;SDS011;7379;51.506;11.876;2023-09-12T04:19:09;11.48;;;6.38;;
14584;SDS011;7379;51.506;11.876;2023-09-12T04:21:36;8.02;;;5.93;;
14584;SDS011;7379;51.506;11.876;2023-09-12T04:24:03;10.68;;;6.40;;
14584;SDS011;7379;51.506;11.876;2023-09-12T04:26:30;8.77;;;6.10;;
14584;SDS011;7379;51.506;11.876;2023-09-12T04:28:56;10.50;;;5.78;;
14584;SDS011;7379;51.506;11.876;2023-09-12T04:31:23;9.80;;;5.68;;
14584;SDS011;7379;51.506;11.876;2023-09-12T04:33:51;9.88;;;6.30;;
14584;SDS011;7379;51.506;11.876;2023-09-12T04:36:19;10.05;;;6.50;;
14584;SDS011;7379;51.506;11.876;2023-09-12T04:38:46;10.20;;;6.25;;
14584;SDS011;7379;51.506;11.876;2023-09-12T04:41:13;7.43;;;6.00;;
14584;SDS011;7379;51.506;11.876;2023-09-12T04:43:42;9.30;;;6.18;;
14584;SDS011;7379;51.506;11.876;2023-09-12T04:46:09;10.23;;;5.97;;
14584;SDS011;7379;51.506;11.876;2023-09-12T04:48:36;10.45;;;6.15;;
14584;SDS011;7379;51.506;11.876;2023-09-12T04:51:02;9.68;;;6.03;;
14584;SDS011;7379;51.506;11.876;2023-09-12T04:53:31;9.05;;;6.22;;
14584;SDS011;7379;51.506;11.876;2023-09-12T04:56:00;9.00;;;5.97;;
14584;SDS011;7379;51.506;11.876;2023-09-12T04:58:26;8.85;;;6.32;;
14584;SDS011;7379;51.506;11.876;2023-09-12T05:00:53;7.97;;;6.15;;
14584;SDS011;7379;51.506;11.876;2023-09-12T05:03:20;9.85;;;6.43;;
14584;SDS011;7379;51.506;11.876;2023-09-12T05:05:48;9.70;;;5.78;;
14584;SDS011;7379;51.506;11.876;2023-09-12T05:08:15;10.93;;;6.70;;
14584;SDS011;7379;51.506;11.876;2023-09-12T05:10:44;10.07;;;6.15;;
14584;SDS011;7379;51.506;11.876;2023-09-12T05:13:11;8.73;;;6.05;;
14584;SDS011;7379;51.506;11.876;2023-09-12T05:15:39;7.97;;;5.80;;
14584;SDS011;7379;51.506;11.876;2023-09-12T05:18:07;10.40;;;6.40;;
14584;SDS011;7379;51.506;11.876;2023-09-12T05:20:34;10.65;;;6.00;;
14584;SDS011;7379;51.506;11.876;2023-09-12T05:23:00;9.70;;;6.45;;
14584;SDS011;7379;51.506;11.876;2023-09-12T05:25:27;10.38;;;6.35;;
14584;SDS011;7379;51.506;11.876;2023-09-12T05:27:56;13.52;;;6.22;;
14584;SDS011;7379;51.506;11.876;2023-09-12T05:30:23;8.90;;;5.93;;
14584;SDS011;7379;51.506;11.876;2023-09-12T05:32:49;9.13;;;6.50;;
14584;SDS011;7379;51.506;11.876;2023-09-12T05:35:16;10.80;;;6.40;;
14584;SDS011;7379;51.506;11.876;2023-09-12T05:37:43;8.52;;;6.07;;
14584;SDS011;7379;51.506;11.876;2023-09-12T05:40:10;7.93;;;5.95;;
14584;SDS011;7379;51.506;11.876;2023-09-12T05:42:37;9.15;;;6.30;;
14584;SDS011;7379;51.506;11.876;2023-09-12T05:45:06;10.70;;;6.38;;
14584;SDS011;7379;51.506;11.876;2023-09-12T05:47:33;8.35;;;6.13;;
14584;SDS011;7379;51.506;11.876;2023-09-12T05:49:59;9.15;;;5.90;;
14584;SDS011;7379;51.506;11.876;2023-09-12T05:52:29;7.72;;;6.30;;
14584;SDS011;7379;51.506;11.876;2023-09-12T05:54:56;8.45;;;5.85;;
14584;SDS011;7379;51.506;11.876;2023-09-12T05:57:23;9.48;;;6.07;;
14584;SDS011;7379;51.506;11.876;2023-09-12T05:59:49;10.52;;;6.28;;
14584;SDS011;7379;51.506;11.876;2023-09-12T06:02:17;9.18;;;5.97;;
14584;SDS011;7379;51.506;11.876;2023-09-12T06:04:44;8.13;;;5.97;;
14584;SDS011;7379;51.506;11.876;2023-09-12T06:07:11;9.77;;;6.40;;
14584;SDS011;7379;51.506;11.876;2023-09-12T06:09:37;8.40;;;6.55;;
14584;SDS011;7379;51.506;11.876;2023-09-12T06:12:05;8.05;;;6.10;;
14584;SDS011;7379;51.506;11.876;2023-09-12T06:14:32;10.48;;;6.38;;
14584;SDS011;7379;51.506;11.876;2023-09-12T06:16:59;8.15;;;6.22;;
14584;SDS011;7379;51.506;11.876;2023-09-12T06:19:27;7.35;;;6.38;;
14584;SDS011;7379;51.506;11.876;2023-09-12T06:21:54;8.85;;;6.20;;
14584;SDS011;7379;51.506;11.876;2023-09-12T06:24:21;7.32;;;6.07;;
14584;SDS011;7379;51.506;11.876;2023-09-12T06:26:48;8.52;;;6.00;;
14584;SDS011;7379;51.506;11.876;2023-09-12T06:29:15;11.07;;;6.63;;
14584;SDS011;7379;51.506;11.876;2023-09-12T06:31:42;8.40;;;6.43;;
14584;SDS011;7379;51.506;11.876;2023-09-12T06:34:09;9.23;;;6.15;;
14584;SDS011;7379;51.506;11.876;2023-09-12T06:36:37;8.52;;;6.20;;
14584;SDS011;7379;51.506;11.876;2023-09-12T06:39:06;8.15;;;6.22;;
14584;SDS011;7379;51.506;11.876;2023-09-12T06:41:33;8.85;;;6.30;;
14584;SDS011;7379;51.506;11.876;2023-09-12T06:43:59;8.13;;;6.05;;
14584;SDS011;7379;51.506;11.876;2023-09-12T06:46:28;9.65;;;6.35;;
14584;SDS011;7379;51.506;11.876;2023-09-12T06:48:54;7.45;;;6.00;;
14584;SDS011;7379;51.506;11.876;2023-09-12T06:51:23;8.20;;;6.40;;
14584;SDS011;7379;51.506;11.876;2023-09-12T06:53:52;10.93;;;6.15;;
14584;SDS011;7379;51.506;11.876;2023-09-12T06:56:19;11.55;;;6.68;;
14584;SDS011;7379;51.506;11.876;2023-09-12T06:58:46;8.50;;;6.72;;
14584;SDS011;7379;51.506;11.876;2023-09-12T07:01:13;11.15;;;6.45;;
14584;SDS011;7379;51.506;11.876;2023-09-12T07:03:40;9.27;;;6.30;;
14584;SDS011;7379;51.506;11.876;2023-09-12T07:06:06;12.25;;;6.88;;
14584;SDS011;7379;51.506;11.876;2023-09-12T07:08:33;7.80;;;6.28;;
14584;SDS011;7379;51.506;11.876;2023-09-12T07:11:03;10.23;;;6.32;;
14584;SDS011;7379;51.506;11.876;2023-09-12T07:13:31;10.40;;;6.43;;
14584;SDS011;7379;51.506;11.876;2023-09-12T07:15:58;9.18;;;6.40;;
14584;SDS011;7379;51.506;11.876;2023-09-12T07:18:28;11.00;;;7.05;;
14584;SDS011;7379;51.506;11.876;2023-09-12T07:20:58;10.68;;;6.72;;
14584;SDS011;7379;51.506;11.876;2023-09-12T07:23:25;10.57;;;7.25;;
14584;SDS011;7379;51.506;11.876;2023-09-12T07:25:52;9.93;;;7.20;;
14584;SDS011;7379;51.506;11.876;2023-09-12T07:28:21;11.35;;;7.05;;
14584;SDS011;7379;51.506;11.876;2023-09-12T07:30:48;10.82;;;6.90;;
14584;SDS011;7379;51.506;11.876;2023-09-12T07:33:15;10.05;;;7.28;;
14584;SDS011;7379;51.506;11.876;2023-09-12T07:35:42;10.25;;;8.05;;
14584;SDS011;7379;51.506;11.876;2023-09-12T07:38:08;10.55;;;8.10;;
14584;SDS011;7379;51.506;11.876;2023-09-12T07:40:35;12.57;;;7.70;;
14584;SDS011;7379;51.506;11.876;2023-09-12T07:43:02;11.70;;;7.78;;
14584;SDS011;7379;51.506;11.876;2023-09-12T07:45:30;12.35;;;7.75;;
14584;SDS011;7379;51.506;11.876;2023-09-12T07:48:02;13.73;;;8.23;;
14584;SDS011;7379;51.506;11.876;2023-09-12T07:50:29;12.18;;;8.75;;
14584;SDS011;7379;51.506;11.876;2023-09-12T07:52:55;9.18;;;8.20;;
14584;SDS011;7379;51.506;11.876;2023-09-12T07:55:22;10.98;;;8.80;;
14584;SDS011;7379;51.506;11.876;2023-09-12T07:57:49;13.57;;;8.70;;
14584;SDS011;7379;51.506;11.876;2023-09-12T08:00:15;11.82;;;9.52;;
14584;SDS011;7379;51.506;11.876;2023-09-12T08:02:44;16.70;;;9.95;;
14584;SDS011;7379;51.506;11.876;2023-09-12T08:05:10;13.05;;;10.57;;
14584;SDS011;7379;51.506;11.876;2023-09-12T08:07:37;15.30;;;10.73;;
14584;SDS011;7379;51.506;11.876;2023-09-12T08:10:04;10.73;;;9.63;;
14584;SDS011;7379;51.506;11.876;2023-09-12T08:12:31;13.20;;;10.45;;
14584;SDS011;7379;51.506;11.876;2023-09-12T08:14:59;14.15;;;10.20;;
14584;SDS011;7379;51.506;11.876;2023-09-12T08:17:26;13.48;;;10.88;;
14584;SDS011;7379;51.506;11.876;2023-09-12T08:19:54;14.65;;;11.18;;
14584;SDS011;7379;51.506;11.876;2023-09-12T08:22:21;15.52;;;11.68;;
14584;SDS011;7379;51.506;11.876;2023-09-12T08:24:48;14.20;;;11.43;;
14584;SDS011;7379;51.506;11.876;2023-09-12T08:27:15;14.75;;;10.85;;
14584;SDS011;7379;51.506;11.876;2023-09-12T08:29:41;14.60;;;10.82;;
14584;SDS011;7379;51.506;11.876;2023-09-12T08:32:09;14.48;;;10.38;;
14584;SDS011;7379;51.506;11.876;2023-09-12T08:34:36;13.70;;;10.77;;
14584;SDS011;7379;51.506;11.876;2023-09-12T08:37:04;15.93;;;11.00;;
14584;SDS011;7379;51.506;11.876;2023-09-12T08:39:39;13.20;;;10.38;;
14584;SDS011;7379;51.506;11.876;2023-09-12T08:42:08;16.92;;;10.43;;
14584;SDS011;7379;51.506;11.876;2023-09-12T08:44:38;13.02;;;9.95;;
14584;SDS011;7379;51.506;11.876;2023-09-12T08:47:06;13.88;;;10.13;;
14584;SDS011;7379;51.506;11.876;2023-09-12T08:49:34;11.70;;;9.90;;
14584;SDS011;7379;51.506;11.876;2023-09-12T08:52:02;14.35;;;9.98;;
14584;SDS011;7379;51.506;11.876;2023-09-12T08:54:30;16.90;;;9.73;;
14584;SDS011;7379;51.506;11.876;2023-09-12T08:56:57;12.00;;;8.80;;
14584;SDS011;7379;51.506;11.876;2023-09-12T08:59:23;14.88;;;9.45;;
14584;SDS011;7379;51.506;11.876;2023-09-12T09:01:51;11.77;;;8.88;;
14584;SDS011;7379;51.506;11.876;2023-09-12T09:04:19;18.73;;;9.95;;
14584;SDS011;7379;51.506;11.876;2023-09-12T09:06:46;13.68;;;9.20;;
14584;SDS011;7379;51.506;11.876;2023-09-12T09:09:13;15.95;;;9.10;;
14584;SDS011;7379;51.506;11.876;2023-09-12T09:11:42;14.13;;;9.30;;
14584;SDS011;7379;51.506;11.876;2023-09-12T09:14:08;12.68;;;8.63;;
14584;SDS011;7379;51.506;11.876;2023-09-12T09:16:35;11.52;;;8.57;;
14584;SDS011;7379;51.506;11.876;2023-09-12T09:19:03;14.60;;;8.75;;
14584;SDS011;7379;51.506;11.876;2023-09-12T09:21:34;11.38;;;8.80;;
14584;SDS011;7379;51.506;11.876;2023-09-12T09:24:03;14.27;;;8.93;;
14584;SDS011;7379;51.506;11.876;2023-09-12T09:26:43;12.60;;;8.95;;
14584;SDS011;7379;51.506;11.876;2023-09-12T09:29:12;9.43;;;8.20;;
14584;SDS011;7379;51.506;11.876;2023-09-12T09:31:41;12.20;;;8.60;;
14584;SDS011;7379;51.506;11.876;2023-09-12T09:34:12;12.52;;;8.23;;
14584;SDS011;7379;51.506;11.876;2023-09-12T09:36:43;10.98;;;7.78;;
14584;SDS011;7379;51.506;11.876;2023-09-12T09:39:10;10.82;;;7.90;;
14584;SDS011;7379;51.506;11.876;2023-09-12T09:41:38;13.90;;;7.88;;
14584;SDS011;7379;51.506;11.876;2023-09-12T09:44:07;9.27;;;7.40;;
14584;SDS011;7379;51.506;11.876;2023-09-12T09:46:34;10.13;;;7.20;;
14584;SDS011;7379;51.506;11.876;2023-09-12T09:49:03;7.70;;;6.80;;
14584;SDS011;7379;51.506;11.876;2023-09-12T09:51:31;10.80;;;6.75;;
14584;SDS011;7379;51.506;11.876;2023-09-12T09:53:58;9.98;;;7.03;;
14584;SDS011;7379;51.506;11.876;2023-09-12T09:56:25;9.27;;;6.53;;
14584;SDS011;7379;51.506;11.876;2023-09-12T09:58:53;8.25;;;6.32;;
14584;SDS011;7379;51.506;11.876;2023-09-12T10:01:22;11.30;;;6.55;;
14584;SDS011;7379;51.506;11.876;2023-09-12T10:03:50;8.20;;;6.35;;
14584;SDS011;7379;51.506;11.876;2023-09-12T10:06:17;7.70;;;6.65;;
14584;SDS011;7379;51.506;11.876;2023-09-12T10:08:46;10.00;;;5.90;;
14584;SDS011;7379;51.506;11.876;2023-09-12T10:11:16;7.78;;;6.40;;
14584;SDS011;7379;51.506;11.876;2023-09-12T10:13:46;7.05;;;6.35;;
14584;SDS011;7379;51.506;11.876;2023-09-12T10:16:16;8.15;;;6.10;;
14584;SDS011;7379;51.506;11.876;2023-09-12T10:18:46;7.18;;;6.20;;
14584;SDS011;7379;51.506;11.876;2023-09-12T10:21:21;8.52;;;6.10;;
14584;SDS011;7379;51.506;11.876;2023-09-12T10:23:55;7.28;;;6.25;;
14584;SDS011;7379;51.506;11.876;2023-09-12T10:26:24;8.38;;;5.72;;
14584;SDS011;7379;51.506;11.876;2023-09-12T10:28:51;9.05;;;6.10;;
14584;SDS011;7379;51.506;11.876;2023-09-12T10:31:20;10.68;;;6.20;;
14584;SDS011;7379;51.506;11.876;2023-09-12T10:33:50;8.50;;;5.72;;
14584;SDS011;7379;51.506;11.876;2023-09-12T10:36:17;7.88;;;5.60;;
14584;SDS011;7379;51.506;11.876;2023-09-12T10:38:46;8.82;;;6.43;;
14584;SDS011;7379;51.506;11.876;2023-09-12T10:41:14;7.43;;;6.13;;
14584;SDS011;7379;51.506;11.876;2023-09-12T10:43:42;6.47;;;5.88;;
14584;SDS011;7379;51.506;11.876;2023-09-12T10:46:11;10.45;;;6.10;;
14584;SDS011;7379;51.506;11.876;2023-09-12T10:48:38;8.13;;;5.57;;
14584;SDS011;7379;51.506;11.876;2023-09-12T10:51:07;7.32;;;5.75;;
14584;SDS011;7379;51.506;11.876;2023-09-12T10:53:36;9.52;;;6.13;;
14584;SDS011;7379;51.506;11.876;2023-09-12T10:56:14;7.53;;;5.95;;
14584;SDS011;7379;51.506;11.876;2023-09-12T11:01:38;6.40;;;5.63;;
14584;SDS011;7379;51.506;11.876;2023-09-12T11:07:00;8.48;;;5.47;;
14584;SDS011;7379;51.506;11.876;2023-09-12T11:09:27;5.63;;;5.03;;
14584;SDS011;7379;51.506;11.876;2023-09-12T11:11:55;6.38;;;5.25;;
14584;SDS011;7379;51.506;11.876;2023-09-12T11:14:23;7.68;;;5.57;;
14584;SDS011;7379;51.506;11.876;2023-09-12T11:19:46;6.05;;;5.40;;
14584;SDS011;7379;51.506;11.876;2023-09-12T11:22:25;7.07;;;5.65;;
14584;SDS011;7379;51.506;11.876;2023-09-12T11:24:53;7.55;;;5.45;;
14584;SDS011;7379;51.506;11.876;2023-09-12T11:27:21;5.50;;;5.00;;
14584;SDS011;7379;51.506;11.876;2023-09-12T11:29:49;7.85;;;5.03;;
14584;SDS011;7379;51.506;11.876;2023-09-12T11:32:25;6.30;;;5.10;;
14584;SDS011;7379;51.506;11.876;2023-09-12T11:34:58;5.65;;;5.10;;
14584;SDS011;7379;51.506;11.876;2023-09-12T11:37:31;5.68;;;5.07;;
14584;SDS011;7379;51.506;11.876;2023-09-12T11:40:00;6.57;;;5.32;;
14584;SDS011;7379;51.506;11.876;2023-09-12T11:42:27;6.32;;;5.10;;
14584;SDS011;7379;51.506;11.876;2023-09-12T11:44:55;7.03;;;5.30;;
14584;SDS011;7379;51.506;11.876;2023-09-12T11:47:22;9.30;;;5.80;;
14584;SDS011;7379;51.506;11.876;2023-09-12T11:49:50;8.50;;;5.43;;
14584;SDS011;7379;51.506;11.876;2023-09-12T11:52:17;7.15;;;5.25;;
14584;SDS011;7379;51.506;11.876;2023-09-12T11:54:46;8.45;;;5.10;;
14584;SDS011;7379;51.506;11.876;2023-09-12T11:57:14;6.70;;;4.95;;
14584;SDS011;7379;51.506;11.876;2023-09-12T11:59:41;9.35;;;5.10;;
14584;SDS011;7379;51.506;11.876;2023-09-12T12:02:10;8.77;;;5.47;;
14584;SDS011;7379;51.506;11.876;2023-09-12T12:04:37;8.32;;;5.05;;
14584;SDS011;7379;51.506;11.876;2023-09-12T12:07:05;7.82;;;5.35;;
14584;SDS011;7379;51.506;11.876;2023-09-12T12:09:32;7.40;;;5.25;;
14584;SDS011;7379;51.506;11.876;2023-09-12T12:12:04;6.95;;;5.25;;
14584;SDS011;7379;51.506;11.876;2023-09-12T12:14:35;6.72;;;5.30;;
14584;SDS011;7379;51.506;11.876;2023-09-12T12:17:06;5.90;;;4.85;;
14584;SDS011;7379;51.506;11.876;2023-09-12T12:19:34;7.55;;;5.20;;
14584;SDS011;7379;51.506;11.876;2023-09-12T12:22:02;8.18;;;5.43;;
14584;SDS011;7379;51.506;11.876;2023-09-12T12:24:36;9.90;;;4.80;;
14584;SDS011;7379;51.506;11.876;2023-09-12T12:27:05;7.35;;;5.32;;
14584;SDS011;7379;51.506;11.876;2023-09-12T12:29:33;5.45;;;4.90;;
14584;SDS011;7379;51.506;11.876;2023-09-12T12:32:00;6.15;;;5.10;;
14584;SDS011;7379;51.506;11.876;2023-09-12T12:34:27;7.63;;;5.32;;
14584;SDS011;7379;51.506;11.876;2023-09-12T12:36:54;6.72;;;5.20;;
14584;SDS011;7379;51.506;11.876;2023-09-12T12:39:21;7.72;;;5.50;;
14584;SDS011;7379;51.506;11.876;2023-09-12T12:41:51;8.57;;;5.72;;
14584;SDS011;7379;51.506;11.876;2023-09-12T12:44:20;8.50;;;5.20;;
14584;SDS011;7379;51.506;11.876;2023-09-12T12:46:50;7.80;;;5.47;;
14584;SDS011;7379;51.506;11.876;2023-09-12T12:49:17;7.75;;;5.32;;
14584;SDS011;7379;51.506;11.876;2023-09-12T12:51:44;9.93;;;5.78;;
14584;SDS011;7379;51.506;11.876;2023-09-12T12:54:11;7.05;;;5.68;;
14584;SDS011;7379;51.506;11.876;2023-09-12T12:56:38;7.68;;;5.32;;
14584;SDS011;7379;51.506;11.876;2023-09-12T12:59:05;7.95;;;5.25;;
14584;SDS011;7379;51.506;11.876;2023-09-12T13:01:35;7.88;;;5.38;;
14584;SDS011;7379;51.506;11.876;2023-09-12T13:04:04;11.38;;;5.68;;
14584;SDS011;7379;51.506;11.876;2023-09-12T13:06:31;7.55;;;5.18;;
14584;SDS011;7379;51.506;11.876;2023-09-12T13:09:00;6.78;;;5.22;;
14584;SDS011;7379;51.506;11.876;2023-09-12T13:11:29;7.22;;;5.40;;
14584;SDS011;7379;51.506;11.876;2023-09-12T13:13:57;8.93;;;5.70;;
14584;SDS011;7379;51.506;11.876;2023-09-12T13:16:23;10.15;;;5.75;;
14584;SDS011;7379;51.506;11.876;2023-09-12T13:18:52;7.72;;;4.88;;
14584;SDS011;7379;51.506;11.876;2023-09-12T13:21:18;6.13;;;5.45;;
14584;SDS011;7379;51.506;11.876;2023-09-12T13:23:45;7.53;;;5.95;;
14584;SDS011;7379;51.506;11.876;2023-09-12T13:26:12;6.93;;;5.43;;
14584;SDS011;7379;51.506;11.876;2023-09-12T13:28:39;8.60;;;5.50;;
14584;SDS011;7379;51.506;11.876;2023-09-12T13:31:06;6.38;;;5.45;;
14584;SDS011;7379;51.506;11.876;2023-09-12T13:33:33;10.43;;;5.65;;
14584;SDS011;7379;51.506;11.876;2023-09-12T13:36:01;6.63;;;5.70;;
14584;SDS011;7379;51.506;11.876;2023-09-12T13:38:28;6.28;;;5.30;;
14584;SDS011;7379;51.506;11.876;2023-09-12T13:40:55;6.18;;;5.43;;
14584;SDS011;7379;51.506;11.876;2023-09-12T13:43:22;7.65;;;6.07;;
14584;SDS011;7379;51.506;11.876;2023-09-12T13:45:48;6.78;;;5.57;;
14584;SDS011;7379;51.506;11.876;2023-09-12T13:48:15;6.38;;;5.50;;
14584;SDS011;7379;51.506;11.876;2023-09-12T13:50:43;7.95;;;5.47;;
14584;SDS011;7379;51.506;11.876;2023-09-12T13:53:11;8.15;;;5.38;;
14584;SDS011;7379;51.506;11.876;2023-09-12T13:55:38;8.45;;;5.63;;
14584;SDS011;7379;51.506;11.876;2023-09-12T13:58:05;7.90;;;5.88;;
14584;SDS011;7379;51.506;11.876;2023-09-12T14:00:32;7.28;;;5.72;;
14584;SDS011;7379;51.506;11.876;2023-09-12T14:03:00;7.10;;;5.35;;
14584;SDS011;7379;51.506;11.876;2023-09-12T14:05:27;9.30;;;5.72;;
14584;SDS011;7379;51.506;11.876;2023-09-12T14:07:54;7.70;;;5.28;;
14584;SDS011;7379;51.506;11.876;2023-09-12T14:10:22;7.18;;;5.60;;
14584;SDS011;7379;51.506;11.876;2023-09-12T14:12:49;8.68;;;5.72;;
14584;SDS011;7379;51.506;11.876;2023-09-12T14:15:16;8.15;;;5.32;;
14584;SDS011;7379;51.506;11.876;2023-09-12T14:17:42;7.05;;;5.90;;
14584;SDS011;7379;51.506;11.876;2023-09-12T14:20:09;8.52;;;6.05;;
14584;SDS011;7379;51.506;11.876;2023-09-12T14:22:40;8.10;;;5.75;;
14584;SDS011;7379;51.506;11.876;2023-09-12T14:25:07;8.27;;;5.68;;
14584;SDS011;7379;51.506;11.876;2023-09-12T14:27:40;7.97;;;5.88;;
14584;SDS011;7379;51.506;11.876;2023-09-12T14:30:08;7.28;;;5.55;;
14584;SDS011;7379;51.506;11.876;2023-09-12T14:32:36;10.60;;;6.43;;
14584;SDS011;7379;51.506;11.876;2023-09-12T14:35:03;10.95;;;6.05;;
14584;SDS011;7379;51.506;11.876;2023-09-12T14:37:30;6.18;;;5.30;;
14584;SDS011;7379;51.506;11.876;2023-09-12T14:39:57;10.15;;;6.10;;
14584;SDS011;7379;51.506;11.876;2023-09-12T14:42:24;7.25;;;5.85;;
14584;SDS011;7379;51.506;11.876;2023-09-12T14:44:52;8.77;;;5.60;;
14584;SDS011;7379;51.506;11.876;2023-09-12T14:47:19;7.82;;;5.68;;
14584;SDS011;7379;51.506;11.876;2023-09-12T14:49:45;9.38;;;6.00;;
14584;SDS011;7379;51.506;11.876;2023-09-12T14:52:12;9.40;;;6.07;;
14584;SDS011;7379;51.506;11.876;2023-09-12T14:54:39;8.60;;;6.00;;